sensor_id;sensor_type;location;lat;lon;timestamp;P1;durP1;ratioP1;P2;durP2;ratioP2
5690;SDS011;2870;42.680;23.364;2024-02-21T00:01:21;11.47;;;8.70;;
5690;SDS011;2870;42.680;23.364;2024-02-21T00:03:48;10.57;;;7.03;;
5690;SDS011;2870;42.680;23.364;2024-02-21T00:06:15;10.37;;;7.90;;
5690;SDS011;2870;42.680;23.364;2024-02-21T00:08:42;11.77;;;8.20;;
5690;SDS011;2870;42.680;23.364;2024-02-21T00:11:09;10.67;;;8.10;;
5690;SDS011;2870;42.680;23.364;2024-02-21T00:13:35;11.23;;;7.87;;
5690;SDS011;2870;42.680;23.364;2024-02-21T00:16:04;10.60;;;7.77;;
5690;SDS011;2870;42.680;23.364;2024-02-21T00:18:30;10.30;;;6.73;;
5690;SDS011;2870;42.680;23.364;2024-02-21T00:20:57;11.10;;;7.73;;
5690;SDS011;2870;42.680;23.364;2024-02-21T00:23:26;9.90;;;7.60;;
5690;SDS011;2870;42.680;23.364;2024-02-21T00:25:53;11.60;;;8.07;;
5690;SDS011;2870;42.680;23.364;2024-02-21T00:28:20;9.60;;;7.67;;
5690;SDS011;2870;42.680;23.364;2024-02-21T00:30:47;11.50;;;8.00;;
5690;SDS011;2870;42.680;23.364;2024-02-21T00:33:16;10.27;;;7.53;;
5690;SDS011;2870;42.680;23.364;2024-02-21T00:35:43;10.90;;;7.33;;
5690;SDS011;2870;42.680;23.364;2024-02-21T00:38:10;9.93;;;7.87;;
5690;SDS011;2870;42.680;23.364;2024-02-21T00:40:37;10.93;;;8.10;;
5690;SDS011;2870;42.680;23.364;2024-02-21T00:43:03;10.40;;;7.43;;
5690;SDS011;2870;42.680;23.364;2024-02-21T00:45:30;9.93;;;7.13;;
5690;SDS011;2870;42.680;23.364;2024-02-21T00:47:56;10.63;;;7.70;;
5690;SDS011;2870;42.680;23.364;2024-02-21T00:50:25;9.67;;;7.43;;
5690;SDS011;2870;42.680;23.364;2024-02-21T00:52:51;11.00;;;7.77;;
5690;SDS011;2870;42.680;23.364;2024-02-21T00:55:18;9.57;;;7.57;;
5690;SDS011;2870;42.680;23.364;2024-02-21T00:57:45;9.00;;;7.00;;
5690;SDS011;2870;42.680;23.364;2024-02-21T01:00:12;10.50;;;7.20;;
5690;SDS011;2870;42.680;23.364;2024-02-21T01:02:39;11.60;;;7.23;;
5690;SDS011;2870;42.680;23.364;2024-02-21T01:05:06;8.97;;;6.90;;
5690;SDS011;2870;42.680;23.364;2024-02-21T01:07:34;9.60;;;6.80;;
5690;SDS011;2870;42.680;23.364;2024-02-21T01:10:01;7.80;;;6.30;;
5690;SDS011;2870;42.680;23.364;2024-02-21T01:12:28;10.23;;;7.37;;
5690;SDS011;2870;42.680;23.364;2024-02-21T01:14:55;8.10;;;6.30;;
5690;SDS011;2870;42.680;23.364;2024-02-21T01:17:21;9.00;;;6.90;;
5690;SDS011;2870;42.680;23.364;2024-02-21T01:19:48;9.90;;;7.40;;
5690;SDS011;2870;42.680;23.364;2024-02-21T01:22:15;8.50;;;7.10;;
5690;SDS011;2870;42.680;23.364;2024-02-21T01:24:44;10.70;;;7.00;;
5690;SDS011;2870;42.680;23.364;2024-02-21T01:27:11;11.53;;;6.80;;
5690;SDS011;2870;42.680;23.364;2024-02-21T01:29:37;10.63;;;7.10;;
5690;SDS011;2870;42.680;23.364;2024-02-21T01:32:04;9.77;;;7.23;;
5690;SDS011;2870;42.680;23.364;2024-02-21T01:34:31;11.00;;;7.60;;
5690;SDS011;2870;42.680;23.364;2024-02-21T01:36:58;9.73;;;7.53;;
5690;SDS011;2870;42.680;23.364;2024-02-21T01:39:29;17.83;;;9.23;;
5690;SDS011;2870;42.680;23.364;2024-02-21T01:41:57;13.60;;;9.17;;
5690;SDS011;2870;42.680;23.364;2024-02-21T01:44:24;14.80;;;9.70;;
5690;SDS011;2870;42.680;23.364;2024-02-21T01:46:52;14.10;;;8.80;;
5690;SDS011;2870;42.680;23.364;2024-02-21T01:49:19;13.23;;;8.50;;
5690;SDS011;2870;42.680;23.364;2024-02-21T01:51:46;11.37;;;8.17;;
5690;SDS011;2870;42.680;23.364;2024-02-21T01:54:14;11.27;;;8.50;;
5690;SDS011;2870;42.680;23.364;2024-02-21T01:56:42;10.80;;;7.77;;
5690;SDS011;2870;42.680;23.364;2024-02-21T01:59:10;10.00;;;7.77;;
5690;SDS011;2870;42.680;23.364;2024-02-21T02:01:39;11.23;;;8.13;;
5690;SDS011;2870;42.680;23.364;2024-02-21T02:04:07;11.07;;;7.63;;
5690;SDS011;2870;42.680;23.364;2024-02-21T02:06:34;11.30;;;8.20;;
5690;SDS011;2870;42.680;23.364;2024-02-21T02:09:01;10.83;;;8.13;;
5690;SDS011;2870;42.680;23.364;2024-02-21T02:11:28;11.63;;;8.00;;
5690;SDS011;2870;42.680;23.364;2024-02-21T02:13:55;10.53;;;7.83;;
5690;SDS011;2870;42.680;23.364;2024-02-21T02:16:23;10.20;;;8.40;;
5690;SDS011;2870;42.680;23.364;2024-02-21T02:18:49;12.20;;;8.60;;
5690;SDS011;2870;42.680;23.364;2024-02-21T02:21:20;11.13;;;8.73;;
5690;SDS011;2870;42.680;23.364;2024-02-21T02:23:53;12.20;;;8.93;;
5690;SDS011;2870;42.680;23.364;2024-02-21T02:26:20;13.40;;;8.10;;
5690;SDS011;2870;42.680;23.364;2024-02-21T02:28:46;12.60;;;9.10;;
5690;SDS011;2870;42.680;23.364;2024-02-21T02:31:13;13.40;;;9.17;;
5690;SDS011;2870;42.680;23.364;2024-02-21T02:33:40;13.20;;;9.70;;
5690;SDS011;2870;42.680;23.364;2024-02-21T02:36:09;13.20;;;9.30;;
5690;SDS011;2870;42.680;23.364;2024-02-21T02:38:35;14.60;;;10.47;;
5690;SDS011;2870;42.680;23.364;2024-02-21T02:41:04;15.10;;;9.90;;
5690;SDS011;2870;42.680;23.364;2024-02-21T02:43:31;12.37;;;9.30;;
5690;SDS011;2870;42.680;23.364;2024-02-21T02:45:58;12.20;;;9.40;;
5690;SDS011;2870;42.680;23.364;2024-02-21T02:48:24;13.37;;;9.50;;
5690;SDS011;2870;42.680;23.364;2024-02-21T02:50:51;11.80;;;8.37;;
5690;SDS011;2870;42.680;23.364;2024-02-21T02:53:18;10.70;;;8.23;;
5690;SDS011;2870;42.680;23.364;2024-02-21T02:55:44;13.63;;;9.27;;
5690;SDS011;2870;42.680;23.364;2024-02-21T02:58:12;14.43;;;10.07;;
5690;SDS011;2870;42.680;23.364;2024-02-21T03:03:38;12.67;;;9.10;;
5690;SDS011;2870;42.680;23.364;2024-02-21T03:06:05;15.07;;;11.07;;
5690;SDS011;2870;42.680;23.364;2024-02-21T03:08:31;15.97;;;10.53;;
5690;SDS011;2870;42.680;23.364;2024-02-21T03:10:59;16.10;;;10.40;;
5690;SDS011;2870;42.680;23.364;2024-02-21T03:13:27;15.07;;;10.50;;
5690;SDS011;2870;42.680;23.364;2024-02-21T03:15:54;15.93;;;10.23;;
5690;SDS011;2870;42.680;23.364;2024-02-21T03:18:21;16.37;;;10.53;;
5690;SDS011;2870;42.680;23.364;2024-02-21T03:20:47;17.87;;;11.87;;
5690;SDS011;2870;42.680;23.364;2024-02-21T03:23:14;16.90;;;10.37;;
5690;SDS011;2870;42.680;23.364;2024-02-21T03:25:41;14.40;;;10.83;;
5690;SDS011;2870;42.680;23.364;2024-02-21T03:28:07;17.53;;;10.53;;
5690;SDS011;2870;42.680;23.364;2024-02-21T03:30:36;15.67;;;11.07;;
5690;SDS011;2870;42.680;23.364;2024-02-21T03:33:02;17.70;;;11.23;;
5690;SDS011;2870;42.680;23.364;2024-02-21T03:35:30;17.27;;;11.17;;
5690;SDS011;2870;42.680;23.364;2024-02-21T03:37:57;16.33;;;11.83;;
5690;SDS011;2870;42.680;23.364;2024-02-21T03:40:23;15.30;;;11.63;;
5690;SDS011;2870;42.680;23.364;2024-02-21T03:42:50;18.70;;;11.40;;
5690;SDS011;2870;42.680;23.364;2024-02-21T03:45:17;17.20;;;12.00;;
5690;SDS011;2870;42.680;23.364;2024-02-21T03:47:45;18.30;;;10.93;;
5690;SDS011;2870;42.680;23.364;2024-02-21T03:50:12;17.23;;;11.70;;
5690;SDS011;2870;42.680;23.364;2024-02-21T03:52:39;16.70;;;11.47;;
5690;SDS011;2870;42.680;23.364;2024-02-21T03:55:06;18.00;;;11.20;;
5690;SDS011;2870;42.680;23.364;2024-02-21T03:57:33;16.40;;;11.63;;
5690;SDS011;2870;42.680;23.364;2024-02-21T04:00:00;16.57;;;10.93;;
5690;SDS011;2870;42.680;23.364;2024-02-21T04:02:28;18.47;;;13.13;;
5690;SDS011;2870;42.680;23.364;2024-02-21T04:04:56;17.67;;;12.20;;
5690;SDS011;2870;42.680;23.364;2024-02-21T04:07:23;18.67;;;12.60;;
5690;SDS011;2870;42.680;23.364;2024-02-21T04:09:50;20.97;;;13.53;;
5690;SDS011;2870;42.680;23.364;2024-02-21T04:12:16;17.07;;;11.50;;
5690;SDS011;2870;42.680;23.364;2024-02-21T04:14:43;19.93;;;12.90;;
5690;SDS011;2870;42.680;23.364;2024-02-21T04:17:10;16.80;;;11.80;;
5690;SDS011;2870;42.680;23.364;2024-02-21T04:19:36;18.43;;;12.33;;
5690;SDS011;2870;42.680;23.364;2024-02-21T04:22:05;18.33;;;11.93;;
5690;SDS011;2870;42.680;23.364;2024-02-21T04:24:31;19.10;;;11.70;;
5690;SDS011;2870;42.680;23.364;2024-02-21T04:26:58;19.63;;;12.70;;
5690;SDS011;2870;42.680;23.364;2024-02-21T04:29:25;17.90;;;12.30;;
5690;SDS011;2870;42.680;23.364;2024-02-21T04:31:53;14.87;;;10.77;;
5690;SDS011;2870;42.680;23.364;2024-02-21T04:34:19;15.67;;;11.87;;
5690;SDS011;2870;42.680;23.364;2024-02-21T04:36:46;19.60;;;11.80;;
5690;SDS011;2870;42.680;23.364;2024-02-21T04:39:14;17.60;;;12.20;;
5690;SDS011;2870;42.680;23.364;2024-02-21T04:41:41;20.67;;;13.27;;
5690;SDS011;2870;42.680;23.364;2024-02-21T04:44:07;21.73;;;13.53;;
5690;SDS011;2870;42.680;23.364;2024-02-21T04:46:34;17.00;;;12.93;;
5690;SDS011;2870;42.680;23.364;2024-02-21T04:49:01;16.50;;;13.03;;
5690;SDS011;2870;42.680;23.364;2024-02-21T04:51:27;19.37;;;13.20;;
5690;SDS011;2870;42.680;23.364;2024-02-21T04:53:54;19.77;;;12.30;;
5690;SDS011;2870;42.680;23.364;2024-02-21T04:56:22;16.57;;;12.03;;
5690;SDS011;2870;42.680;23.364;2024-02-21T04:58:49;22.30;;;13.83;;
5690;SDS011;2870;42.680;23.364;2024-02-21T05:01:16;16.47;;;11.80;;
5690;SDS011;2870;42.680;23.364;2024-02-21T05:03:43;19.30;;;13.77;;
5690;SDS011;2870;42.680;23.364;2024-02-21T05:06:10;23.50;;;13.87;;
5690;SDS011;2870;42.680;23.364;2024-02-21T05:08:36;24.60;;;13.43;;
5690;SDS011;2870;42.680;23.364;2024-02-21T05:11:03;20.33;;;13.23;;
5690;SDS011;2870;42.680;23.364;2024-02-21T05:13:31;21.10;;;13.37;;
5690;SDS011;2870;42.680;23.364;2024-02-21T05:15:58;16.57;;;12.03;;
5690;SDS011;2870;42.680;23.364;2024-02-21T05:18:26;15.87;;;11.43;;
5690;SDS011;2870;42.680;23.364;2024-02-21T05:20:53;19.73;;;13.30;;
5690;SDS011;2870;42.680;23.364;2024-02-21T05:23:19;25.20;;;13.60;;
5690;SDS011;2870;42.680;23.364;2024-02-21T05:25:46;16.07;;;11.93;;
5690;SDS011;2870;42.680;23.364;2024-02-21T05:28:13;18.00;;;12.60;;
5690;SDS011;2870;42.680;23.364;2024-02-21T05:30:41;19.93;;;14.00;;
5690;SDS011;2870;42.680;23.364;2024-02-21T05:33:08;22.20;;;11.67;;
5690;SDS011;2870;42.680;23.364;2024-02-21T05:35:35;19.13;;;12.77;;
5690;SDS011;2870;42.680;23.364;2024-02-21T05:38:03;21.77;;;13.67;;
5690;SDS011;2870;42.680;23.364;2024-02-21T05:40:36;19.80;;;12.20;;
5690;SDS011;2870;42.680;23.364;2024-02-21T05:43:03;19.40;;;12.60;;
5690;SDS011;2870;42.680;23.364;2024-02-21T05:45:29;24.70;;;14.60;;
5690;SDS011;2870;42.680;23.364;2024-02-21T05:47:58;21.77;;;14.50;;
5690;SDS011;2870;42.680;23.364;2024-02-21T05:50:24;20.03;;;13.07;;
5690;SDS011;2870;42.680;23.364;2024-02-21T05:52:52;27.07;;;14.57;;
5690;SDS011;2870;42.680;23.364;2024-02-21T05:55:19;21.50;;;13.10;;
5690;SDS011;2870;42.680;23.364;2024-02-21T05:57:46;25.27;;;15.40;;
5690;SDS011;2870;42.680;23.364;2024-02-21T06:00:14;21.20;;;13.17;;
5690;SDS011;2870;42.680;23.364;2024-02-21T06:02:41;23.07;;;14.53;;
5690;SDS011;2870;42.680;23.364;2024-02-21T06:05:10;24.17;;;14.60;;
5690;SDS011;2870;42.680;23.364;2024-02-21T06:07:36;28.13;;;14.03;;
5690;SDS011;2870;42.680;23.364;2024-02-21T06:10:03;25.17;;;15.13;;
5690;SDS011;2870;42.680;23.364;2024-02-21T06:12:31;17.60;;;12.93;;
5690;SDS011;2870;42.680;23.364;2024-02-21T06:14:57;26.60;;;15.07;;
5690;SDS011;2870;42.680;23.364;2024-02-21T06:17:24;31.33;;;17.50;;
5690;SDS011;2870;42.680;23.364;2024-02-21T06:19:51;24.07;;;15.60;;
5690;SDS011;2870;42.680;23.364;2024-02-21T06:22:19;25.33;;;14.43;;
5690;SDS011;2870;42.680;23.364;2024-02-21T06:24:46;27.43;;;15.50;;
5690;SDS011;2870;42.680;23.364;2024-02-21T06:27:12;35.57;;;16.30;;
5690;SDS011;2870;42.680;23.364;2024-02-21T06:29:40;25.10;;;15.40;;
5690;SDS011;2870;42.680;23.364;2024-02-21T06:32:06;24.63;;;14.50;;
5690;SDS011;2870;42.680;23.364;2024-02-21T06:34:33;29.30;;;14.57;;
5690;SDS011;2870;42.680;23.364;2024-02-21T06:37:00;17.67;;;13.43;;
5690;SDS011;2870;42.680;23.364;2024-02-21T06:39:29;21.40;;;14.20;;
5690;SDS011;2870;42.680;23.364;2024-02-21T06:41:55;23.03;;;15.20;;
5690;SDS011;2870;42.680;23.364;2024-02-21T06:44:22;22.67;;;13.90;;
5690;SDS011;2870;42.680;23.364;2024-02-21T06:46:49;23.10;;;14.00;;
5690;SDS011;2870;42.680;23.364;2024-02-21T06:49:16;32.93;;;14.17;;
5690;SDS011;2870;42.680;23.364;2024-02-21T06:51:42;22.53;;;13.70;;
5690;SDS011;2870;42.680;23.364;2024-02-21T06:54:09;27.43;;;15.03;;
5690;SDS011;2870;42.680;23.364;2024-02-21T06:56:39;22.07;;;14.70;;
5690;SDS011;2870;42.680;23.364;2024-02-21T06:59:06;23.70;;;14.07;;
5690;SDS011;2870;42.680;23.364;2024-02-21T07:01:33;23.07;;;15.30;;
5690;SDS011;2870;42.680;23.364;2024-02-21T07:03:59;19.03;;;12.93;;
5690;SDS011;2870;42.680;23.364;2024-02-21T07:06:26;19.20;;;13.30;;
5690;SDS011;2870;42.680;23.364;2024-02-21T07:08:53;21.03;;;14.47;;
5690;SDS011;2870;42.680;23.364;2024-02-21T07:11:20;20.93;;;13.77;;
5690;SDS011;2870;42.680;23.364;2024-02-21T07:13:48;28.63;;;16.47;;
5690;SDS011;2870;42.680;23.364;2024-02-21T07:16:15;25.83;;;16.60;;
5690;SDS011;2870;42.680;23.364;2024-02-21T07:18:41;34.70;;;16.60;;
5690;SDS011;2870;42.680;23.364;2024-02-21T07:21:08;27.13;;;17.23;;
5690;SDS011;2870;42.680;23.364;2024-02-21T07:23:35;25.20;;;16.23;;
5690;SDS011;2870;42.680;23.364;2024-02-21T07:26:01;25.40;;;16.00;;
5690;SDS011;2870;42.680;23.364;2024-02-21T07:28:29;27.47;;;17.30;;
5690;SDS011;2870;42.680;23.364;2024-02-21T07:30:58;25.43;;;16.57;;
5690;SDS011;2870;42.680;23.364;2024-02-21T07:33:25;23.73;;;16.10;;
5690;SDS011;2870;42.680;23.364;2024-02-21T07:35:52;26.93;;;18.30;;
5690;SDS011;2870;42.680;23.364;2024-02-21T07:38:19;21.57;;;15.07;;
5690;SDS011;2870;42.680;23.364;2024-02-21T07:40:45;23.57;;;15.50;;
5690;SDS011;2870;42.680;23.364;2024-02-21T07:43:12;22.43;;;14.47;;
5690;SDS011;2870;42.680;23.364;2024-02-21T07:45:39;24.90;;;15.63;;
5690;SDS011;2870;42.680;23.364;2024-02-21T07:48:07;23.83;;;15.37;;
5690;SDS011;2870;42.680;23.364;2024-02-21T07:50:34;25.80;;;15.43;;
5690;SDS011;2870;42.680;23.364;2024-02-21T07:53:00;25.87;;;16.03;;
5690;SDS011;2870;42.680;23.364;2024-02-21T07:55:27;23.30;;;15.50;;
5690;SDS011;2870;42.680;23.364;2024-02-21T07:57:54;23.53;;;14.93;;
5690;SDS011;2870;42.680;23.364;2024-02-21T08:00:20;22.00;;;14.20;;
5690;SDS011;2870;42.680;23.364;2024-02-21T08:02:48;20.87;;;14.00;;
5690;SDS011;2870;42.680;23.364;2024-02-21T08:05:17;23.70;;;15.73;;
5690;SDS011;2870;42.680;23.364;2024-02-21T08:07:44;24.60;;;15.67;;
5690;SDS011;2870;42.680;23.364;2024-02-21T08:10:11;23.10;;;14.60;;
5690;SDS011;2870;42.680;23.364;2024-02-21T08:12:38;27.70;;;15.63;;
5690;SDS011;2870;42.680;23.364;2024-02-21T08:15:05;25.97;;;17.03;;
5690;SDS011;2870;42.680;23.364;2024-02-21T08:17:33;24.33;;;15.77;;
5690;SDS011;2870;42.680;23.364;2024-02-21T08:20:00;26.60;;;16.13;;
5690;SDS011;2870;42.680;23.364;2024-02-21T08:22:29;23.03;;;15.03;;
5690;SDS011;2870;42.680;23.364;2024-02-21T08:24:55;25.50;;;15.17;;
5690;SDS011;2870;42.680;23.364;2024-02-21T08:27:22;27.20;;;15.77;;
5690;SDS011;2870;42.680;23.364;2024-02-21T08:29:49;26.73;;;14.13;;
5690;SDS011;2870;42.680;23.364;2024-02-21T08:32:16;22.13;;;13.80;;
5690;SDS011;2870;42.680;23.364;2024-02-21T08:34:42;25.43;;;15.07;;
5690;SDS011;2870;42.680;23.364;2024-02-21T08:37:09;24.13;;;15.63;;
5690;SDS011;2870;42.680;23.364;2024-02-21T08:39:38;26.93;;;15.00;;
5690;SDS011;2870;42.680;23.364;2024-02-21T08:42:05;28.03;;;16.90;;
5690;SDS011;2870;42.680;23.364;2024-02-21T08:44:32;25.73;;;16.20;;
5690;SDS011;2870;42.680;23.364;2024-02-21T08:46:58;25.60;;;14.93;;
5690;SDS011;2870;42.680;23.364;2024-02-21T08:49:28;24.53;;;14.10;;
5690;SDS011;2870;42.680;23.364;2024-02-21T08:51:56;21.80;;;14.10;;
5690;SDS011;2870;42.680;23.364;2024-02-21T08:54:23;22.13;;;14.30;;
5690;SDS011;2870;42.680;23.364;2024-02-21T08:56:51;21.37;;;13.60;;
5690;SDS011;2870;42.680;23.364;2024-02-21T08:59:17;21.70;;;13.97;;
5690;SDS011;2870;42.680;23.364;2024-02-21T09:01:44;19.40;;;12.67;;
5690;SDS011;2870;42.680;23.364;2024-02-21T09:04:11;31.60;;;14.27;;
5690;SDS011;2870;42.680;23.364;2024-02-21T09:06:37;24.60;;;13.53;;
5690;SDS011;2870;42.680;23.364;2024-02-21T09:09:07;19.10;;;12.80;;
5690;SDS011;2870;42.680;23.364;2024-02-21T09:11:35;25.10;;;12.50;;
5690;SDS011;2870;42.680;23.364;2024-02-21T09:14:03;19.33;;;13.17;;
5690;SDS011;2870;42.680;23.364;2024-02-21T09:16:30;19.20;;;13.10;;
5690;SDS011;2870;42.680;23.364;2024-02-21T09:18:57;21.47;;;13.50;;
5690;SDS011;2870;42.680;23.364;2024-02-21T09:21:24;24.97;;;15.00;;
5690;SDS011;2870;42.680;23.364;2024-02-21T09:23:50;21.87;;;14.27;;
5690;SDS011;2870;42.680;23.364;2024-02-21T09:26:17;18.77;;;13.20;;
5690;SDS011;2870;42.680;23.364;2024-02-21T09:28:44;20.97;;;14.27;;
5690;SDS011;2870;42.680;23.364;2024-02-21T09:31:12;23.27;;;15.60;;
5690;SDS011;2870;42.680;23.364;2024-02-21T09:33:39;25.50;;;14.53;;
5690;SDS011;2870;42.680;23.364;2024-02-21T09:36:06;28.03;;;15.90;;
5690;SDS011;2870;42.680;23.364;2024-02-21T09:38:33;19.70;;;13.73;;
5690;SDS011;2870;42.680;23.364;2024-02-21T09:41:00;21.33;;;14.47;;
5690;SDS011;2870;42.680;23.364;2024-02-21T09:43:37;23.33;;;14.80;;
5690;SDS011;2870;42.680;23.364;2024-02-21T09:46:07;18.17;;;13.23;;
5690;SDS011;2870;42.680;23.364;2024-02-21T09:48:42;23.27;;;14.27;;
5690;SDS011;2870;42.680;23.364;2024-02-21T09:51:21;20.90;;;13.30;;
5690;SDS011;2870;42.680;23.364;2024-02-21T09:53:49;21.20;;;14.07;;
5690;SDS011;2870;42.680;23.364;2024-02-21T09:56:19;26.77;;;14.10;;
5690;SDS011;2870;42.680;23.364;2024-02-21T09:58:46;35.27;;;15.40;;
5690;SDS011;2870;42.680;23.364;2024-02-21T10:01:13;21.63;;;14.57;;
5690;SDS011;2870;42.680;23.364;2024-02-21T10:03:43;21.17;;;14.10;;
5690;SDS011;2870;42.680;23.364;2024-02-21T10:06:09;23.97;;;14.30;;
5690;SDS011;2870;42.680;23.364;2024-02-21T10:08:36;33.60;;;14.57;;
5690;SDS011;2870;42.680;23.364;2024-02-21T10:11:03;28.73;;;16.47;;
5690;SDS011;2870;42.680;23.364;2024-02-21T10:13:30;26.50;;;15.87;;
5690;SDS011;2870;42.680;23.364;2024-02-21T10:16:00;21.77;;;13.87;;
5690;SDS011;2870;42.680;23.364;2024-02-21T10:18:30;22.83;;;13.93;;
5690;SDS011;2870;42.680;23.364;2024-02-21T10:21:02;22.83;;;14.80;;
5690;SDS011;2870;42.680;23.364;2024-02-21T10:23:29;19.30;;;12.40;;
5690;SDS011;2870;42.680;23.364;2024-02-21T10:26:07;21.77;;;12.67;;
5690;SDS011;2870;42.680;23.364;2024-02-21T10:28:34;19.23;;;12.37;;
5690;SDS011;2870;42.680;23.364;2024-02-21T10:31:00;16.77;;;11.80;;
5690;SDS011;2870;42.680;23.364;2024-02-21T10:33:27;16.17;;;11.20;;
5690;SDS011;2870;42.680;23.364;2024-02-21T10:36:07;15.10;;;10.37;;
5690;SDS011;2870;42.680;23.364;2024-02-21T10:38:35;16.53;;;11.40;;
5690;SDS011;2870;42.680;23.364;2024-02-21T10:41:03;18.10;;;11.17;;
5690;SDS011;2870;42.680;23.364;2024-02-21T10:43:33;17.17;;;11.13;;
5690;SDS011;2870;42.680;23.364;2024-02-21T10:46:06;16.63;;;11.07;;
5690;SDS011;2870;42.680;23.364;2024-02-21T10:48:37;16.90;;;11.37;;
5690;SDS011;2870;42.680;23.364;2024-02-21T10:51:12;15.70;;;9.83;;
5690;SDS011;2870;42.680;23.364;2024-02-21T10:53:44;17.30;;;11.43;;
5690;SDS011;2870;42.680;23.364;2024-02-21T10:56:16;17.90;;;10.70;;
5690;SDS011;2870;42.680;23.364;2024-02-21T10:58:54;16.40;;;11.00;;
5690;SDS011;2870;42.680;23.364;2024-02-21T11:01:23;16.13;;;11.07;;
5690;SDS011;2870;42.680;23.364;2024-02-21T11:03:52;16.00;;;10.00;;
5690;SDS011;2870;42.680;23.364;2024-02-21T11:06:21;16.47;;;10.80;;
5690;SDS011;2870;42.680;23.364;2024-02-21T11:08:58;15.70;;;10.07;;
5690;SDS011;2870;42.680;23.364;2024-02-21T11:11:27;14.83;;;8.90;;
5690;SDS011;2870;42.680;23.364;2024-02-21T11:14:03;13.57;;;8.83;;
5690;SDS011;2870;42.680;23.364;2024-02-21T11:16:34;12.00;;;8.30;;
5690;SDS011;2870;42.680;23.364;2024-02-21T11:19:09;13.40;;;8.50;;
5690;SDS011;2870;42.680;23.364;2024-02-21T11:21:38;11.07;;;7.30;;
5690;SDS011;2870;42.680;23.364;2024-02-21T11:24:06;12.80;;;8.20;;
5690;SDS011;2870;42.680;23.364;2024-02-21T11:26:33;12.90;;;8.13;;
5690;SDS011;2870;42.680;23.364;2024-02-21T11:29:03;10.63;;;7.27;;
5690;SDS011;2870;42.680;23.364;2024-02-21T11:31:40;12.03;;;7.50;;
5690;SDS011;2870;42.680;23.364;2024-02-21T11:34:10;12.90;;;8.53;;
5690;SDS011;2870;42.680;23.364;2024-02-21T11:36:47;12.07;;;8.00;;
5690;SDS011;2870;42.680;23.364;2024-02-21T11:39:18;11.33;;;7.90;;
5690;SDS011;2870;42.680;23.364;2024-02-21T11:41:47;12.03;;;7.47;;
5690;SDS011;2870;42.680;23.364;2024-02-21T11:44:13;13.80;;;7.20;;
5690;SDS011;2870;42.680;23.364;2024-02-21T11:46:40;12.97;;;8.13;;
5690;SDS011;2870;42.680;23.364;2024-02-21T11:49:07;11.20;;;7.30;;
5690;SDS011;2870;42.680;23.364;2024-02-21T11:51:34;14.30;;;7.80;;
5690;SDS011;2870;42.680;23.364;2024-02-21T11:54:02;15.43;;;8.30;;
5690;SDS011;2870;42.680;23.364;2024-02-21T11:56:30;21.10;;;8.60;;
5690;SDS011;2870;42.680;23.364;2024-02-21T11:58:58;12.00;;;7.90;;
5690;SDS011;2870;42.680;23.364;2024-02-21T12:01:25;10.13;;;7.27;;
5690;SDS011;2870;42.680;23.364;2024-02-21T12:03:52;10.40;;;6.83;;
5690;SDS011;2870;42.680;23.364;2024-02-21T12:06:19;11.10;;;7.27;;
5690;SDS011;2870;42.680;23.364;2024-02-21T12:08:47;12.13;;;7.37;;
5690;SDS011;2870;42.680;23.364;2024-02-21T12:11:21;15.50;;;7.70;;
5690;SDS011;2870;42.680;23.364;2024-02-21T12:13:58;15.77;;;7.90;;
5690;SDS011;2870;42.680;23.364;2024-02-21T12:16:27;12.27;;;8.07;;
5690;SDS011;2870;42.680;23.364;2024-02-21T12:18:54;11.23;;;8.00;;
5690;SDS011;2870;42.680;23.364;2024-02-21T12:21:23;16.73;;;8.73;;
5690;SDS011;2870;42.680;23.364;2024-02-21T12:23:50;16.00;;;8.57;;
5690;SDS011;2870;42.680;23.364;2024-02-21T12:26:17;10.23;;;7.80;;
5690;SDS011;2870;42.680;23.364;2024-02-21T12:28:45;13.03;;;8.40;;
5690;SDS011;2870;42.680;23.364;2024-02-21T12:31:12;13.20;;;8.80;;
5690;SDS011;2870;42.680;23.364;2024-02-21T12:33:38;13.63;;;8.50;;
5690;SDS011;2870;42.680;23.364;2024-02-21T12:36:05;14.40;;;8.23;;
5690;SDS011;2870;42.680;23.364;2024-02-21T12:38:33;11.47;;;7.63;;
5690;SDS011;2870;42.680;23.364;2024-02-21T12:41:00;11.00;;;7.80;;
5690;SDS011;2870;42.680;23.364;2024-02-21T12:43:27;17.60;;;9.00;;
5690;SDS011;2870;42.680;23.364;2024-02-21T12:45:55;10.77;;;7.33;;
5690;SDS011;2870;42.680;23.364;2024-02-21T12:48:22;15.03;;;7.73;;
5690;SDS011;2870;42.680;23.364;2024-02-21T12:50:49;12.67;;;8.23;;
5690;SDS011;2870;42.680;23.364;2024-02-21T12:53:17;18.40;;;8.73;;
5690;SDS011;2870;42.680;23.364;2024-02-21T12:55:44;12.10;;;7.83;;
5690;SDS011;2870;42.680;23.364;2024-02-21T12:58:12;14.10;;;8.70;;
5690;SDS011;2870;42.680;23.364;2024-02-21T13:00:39;14.20;;;9.13;;
5690;SDS011;2870;42.680;23.364;2024-02-21T13:03:07;16.10;;;9.33;;
5690;SDS011;2870;42.680;23.364;2024-02-21T13:05:35;14.70;;;9.40;;
5690;SDS011;2870;42.680;23.364;2024-02-21T13:08:04;16.60;;;10.13;;
5690;SDS011;2870;42.680;23.364;2024-02-21T13:10:31;16.63;;;11.00;;
5690;SDS011;2870;42.680;23.364;2024-02-21T13:12:58;13.57;;;9.23;;
5690;SDS011;2870;42.680;23.364;2024-02-21T13:15:25;15.10;;;10.37;;
5690;SDS011;2870;42.680;23.364;2024-02-21T13:17:53;18.10;;;9.80;;
5690;SDS011;2870;42.680;23.364;2024-02-21T13:20:21;14.50;;;9.63;;
5690;SDS011;2870;42.680;23.364;2024-02-21T13:22:47;13.00;;;9.23;;
5690;SDS011;2870;42.680;23.364;2024-02-21T13:25:14;14.03;;;9.27;;
5690;SDS011;2870;42.680;23.364;2024-02-21T13:27:43;30.93;;;10.10;;
5690;SDS011;2870;42.680;23.364;2024-02-21T13:30:10;17.67;;;11.00;;
5690;SDS011;2870;42.680;23.364;2024-02-21T13:32:38;14.50;;;10.50;;
5690;SDS011;2870;42.680;23.364;2024-02-21T13:35:04;15.10;;;10.93;;
5690;SDS011;2870;42.680;23.364;2024-02-21T13:37:33;14.33;;;10.03;;
5690;SDS011;2870;42.680;23.364;2024-02-21T13:39:59;13.00;;;8.47;;
5690;SDS011;2870;42.680;23.364;2024-02-21T13:42:26;11.90;;;7.97;;
5690;SDS011;2870;42.680;23.364;2024-02-21T13:44:53;10.17;;;7.93;;
5690;SDS011;2870;42.680;23.364;2024-02-21T13:47:19;15.43;;;8.73;;
5690;SDS011;2870;42.680;23.364;2024-02-21T13:49:47;17.87;;;8.80;;
5690;SDS011;2870;42.680;23.364;2024-02-21T13:52:14;12.57;;;8.87;;
5690;SDS011;2870;42.680;23.364;2024-02-21T13:54:43;15.93;;;8.87;;
5690;SDS011;2870;42.680;23.364;2024-02-21T13:57:10;11.50;;;8.33;;
5690;SDS011;2870;42.680;23.364;2024-02-21T13:59:36;13.30;;;9.57;;
5690;SDS011;2870;42.680;23.364;2024-02-21T14:02:04;14.03;;;8.43;;
5690;SDS011;2870;42.680;23.364;2024-02-21T14:04:32;19.33;;;10.33;;
5690;SDS011;2870;42.680;23.364;2024-02-21T14:06:59;14.80;;;9.53;;
5690;SDS011;2870;42.680;23.364;2024-02-21T14:09:25;34.40;;;24.03;;
5690;SDS011;2870;42.680;23.364;2024-02-21T14:11:54;21.90;;;11.50;;
5690;SDS011;2870;42.680;23.364;2024-02-21T14:14:20;19.93;;;10.40;;
5690;SDS011;2870;42.680;23.364;2024-02-21T14:16:47;22.00;;;10.77;;
5690;SDS011;2870;42.680;23.364;2024-02-21T14:19:14;17.03;;;10.60;;
5690;SDS011;2870;42.680;23.364;2024-02-21T14:21:41;22.30;;;9.37;;
5690;SDS011;2870;42.680;23.364;2024-02-21T14:24:08;20.70;;;8.50;;
5690;SDS011;2870;42.680;23.364;2024-02-21T14:26:35;16.90;;;8.63;;
5690;SDS011;2870;42.680;23.364;2024-02-21T14:29:03;15.77;;;9.20;;
5690;SDS011;2870;42.680;23.364;2024-02-21T14:31:31;12.10;;;7.83;;
5690;SDS011;2870;42.680;23.364;2024-02-21T14:33:58;15.77;;;8.80;;
5690;SDS011;2870;42.680;23.364;2024-02-21T14:36:24;15.07;;;9.47;;
5690;SDS011;2870;42.680;23.364;2024-02-21T14:38:52;14.27;;;9.70;;
5690;SDS011;2870;42.680;23.364;2024-02-21T14:41:17;13.40;;;9.30;;
5690;SDS011;2870;42.680;23.364;2024-02-21T14:43:44;12.63;;;7.97;;
5690;SDS011;2870;42.680;23.364;2024-02-21T14:46:12;13.10;;;8.20;;